Time;durP1;ratioP1;P1;durP2;ratioP2;P2;SDS_P1;SDS_P2;PMS_P1;PMS_P2;Temp;Humidity;BMP_temperature;BMP_pressure;BME280_temperature;BME280_humidity;BME280_pressure;Samples;Min_cycle;Max_cycle;Signal;HPM_P1;HPM_P2
2022/11/22 00:00:25;;;;;;;4.88;0.75;;;15.60;52.50;;;;;;5092246;28;20036;-62
2022/11/22 00:02:52;;;;;;;1.33;0.10;;;15.60;52.60;;;;;;5111020;28;20039;-64
2022/11/22 00:05:19;;;;;;;1.00;0.28;;;15.60;53.10;;;;;;5110878;28;20126;-63
2022/11/22 00:07:46;;;;;;;2.40;0.40;;;15.60;52.60;;;;;;5110644;28;20040;-62
2022/11/22 00:10:15;;;;;;;1.02;0.15;;;15.60;52.60;;;;;;5110991;28;20046;-63
2022/11/22 00:12:43;;;;;;;1.30;0.22;;;15.50;52.60;;;;;;5110540;28;20159;-64
2022/11/22 00:15:11;;;;;;;3.05;0.20;;;15.60;52.60;;;;;;5110164;28;20058;-63
2022/11/22 00:17:39;;;;;;;1.38;0.10;;;15.50;52.60;;;;;;5110626;28;20043;-63
2022/11/22 00:20:09;;;;;;;4.20;0.22;;;15.50;52.50;;;;;;5110565;28;20044;-64
2022/11/22 00:22:36;;;;;;;0.68;0.13;;;15.50;52.50;;;;;;5110314;28;20055;-63
2022/11/22 00:25:03;;;;;;;3.90;0.20;;;15.50;52.50;;;;;;5110350;28;20063;-64
2022/11/22 00:27:32;;;;;;;1.05;0.10;;;15.50;52.50;;;;;;5118604;27;20078;-64
2022/11/22 00:29:59;;;;;;;2.40;0.30;;;15.50;52.50;;;;;;5110707;28;20044;-63
2022/11/22 00:32:26;;;;;;;2.83;0.13;;;15.50;52.50;;;;;;5110328;28;20075;-64
2022/11/22 00:34:53;;;;;;;4.28;0.13;;;15.50;53.00;;;;;;5110577;28;20630;-63
2022/11/22 00:37:20;;;;;;;0.73;0.10;;;15.50;52.40;;;;;;5110358;28;20043;-63
2022/11/22 00:39:47;;;;;;;2.05;0.40;;;15.50;52.40;;;;;;5110179;28;20043;-64
2022/11/22 00:42:14;;;;;;;4.65;0.43;;;15.50;52.50;;;;;;5110025;28;20477;-63
2022/11/22 00:44:43;;;;;;;0.90;0.68;;;15.50;52.50;;;;;;5109962;28;20481;-65
2022/11/22 00:47:10;;;;;;;2.63;0.17;;;15.40;52.40;;;;;;5110154;28;20039;-63
2022/11/22 00:49:37;;;;;;;2.35;0.30;;;15.40;52.40;;;;;;5110242;28;20574;-62
2022/11/22 00:52:04;;;;;;;0.82;0.10;;;15.40;52.40;;;;;;5108998;28;20130;-63
2022/11/22 00:54:31;;;;;;;2.20;0.28;;;15.40;52.40;;;;;;5109931;28;20389;-64
2022/11/22 00:56:58;;;;;;;0.65;0.10;;;15.40;52.40;;;;;;5109588;28;20492;-62
2022/11/22 00:59:25;;;;;;;2.90;0.15;;;15.40;52.40;;;;;;5109254;28;20045;-63
2022/11/22 01:01:53;;;;;;;1.40;0.10;;;15.40;52.40;;;;;;5109766;28;20555;-63
2022/11/22 01:04:20;;;;;;;0.65;0.15;;;15.40;52.40;;;;;;5091743;28;20039;-63
2022/11/22 01:06:47;;;;;;;4.60;0.63;;;15.40;52.40;;;;;;5109897;28;20109;-64
2022/11/22 01:09:19;;;;;;;2.15;0.30;;;15.40;52.30;;;;;;5109680;28;20042;-63
2022/11/22 01:11:46;;;;;;;0.73;0.10;;;15.40;52.40;;;;;;5109125;28;20044;-63
2022/11/22 01:14:13;;;;;;;1.65;0.28;;;15.30;52.30;;;;;;5109532;28;20039;-63
2022/11/22 01:16:40;;;;;;;2.60;0.25;;;15.30;52.30;;;;;;5109326;28;20105;-63
2022/11/22 01:19:09;;;;;;;1.52;0.43;;;15.30;52.30;;;;;;5109517;28;20050;-64
2022/11/22 01:21:36;;;;;;;1.30;0.63;;;15.30;52.30;;;;;;5109493;28;20100;-63
2022/11/22 01:24:03;;;;;;;3.30;0.73;;;15.40;52.30;;;;;;5109337;28;20031;-65
2022/11/22 01:26:30;;;;;;;1.35;0.68;;;15.30;52.30;;;;;;5109105;28;20128;-63
2022/11/22 01:28:57;;;;;;;1.90;0.28;;;15.30;52.30;;;;;;5109198;28;20567;-63
2022/11/22 01:31:25;;;;;;;1.70;0.20;;;15.30;52.20;;;;;;5109406;28;20074;-64
2022/11/22 01:33:52;;;;;;;1.08;0.17;;;15.30;52.30;;;;;;5109332;28;20051;-64
2022/11/22 01:36:20;;;;;;;2.25;0.10;;;15.30;52.30;;;;;;5109348;28;20051;-62
2022/11/22 01:38:47;;;;;;;8.85;0.95;;;15.30;52.30;;;;;;5109538;28;20039;-64
2022/11/22 01:41:14;;;;;;;3.75;0.25;;;15.30;52.30;;;;;;5108780;28;20548;-63
2022/11/22 01:43:41;;;;;;;1.65;0.32;;;15.30;52.30;;;;;;5108995;28;20051;-63
2022/11/22 01:46:16;;;;;;;3.30;0.13;;;15.30;52.30;;;;;;5110114;28;20105;-63
2022/11/22 01:48:50;;;;;;;3.05;0.20;;;15.30;52.30;;;;;;5100061;28;20044;-63
2022/11/22 01:51:25;;;;;;;1.70;0.20;;;15.30;52.30;;;;;;5089990;28;20044;-64
2022/11/22 01:53:56;;;;;;;1.35;0.38;;;15.30;52.30;;;;;;5108609;28;20108;-63
2022/11/22 01:56:23;;;;;;;2.80;0.28;;;15.30;52.40;;;;;;5108544;28;20039;-63
2022/11/22 01:58:56;;;;;;;0.75;0.30;;;15.30;52.30;;;;;;5109027;28;20039;-63
2022/11/22 02:01:24;;;;;;;0.65;0.30;;;15.30;52.30;;;;;;5108769;28;20123;-63
2022/11/22 02:03:53;;;;;;;2.78;0.73;;;15.30;52.20;;;;;;5108660;28;20058;-64
2022/11/22 02:06:24;;;;;;;1.42;0.17;;;15.30;52.20;;;;;;5108749;28;20134;-62
2022/11/22 02:08:58;;;;;;;1.70;0.10;;;15.30;52.20;;;;;;5108749;28;20043;-56
2022/11/22 02:11:27;;;;;;;4.57;0.45;;;15.30;52.30;;;;;;5108570;28;20050;-63
2022/11/22 02:13:55;;;;;;;1.05;0.10;;;15.30;52.20;;;;;;5108384;28;20051;-63
2022/11/22 02:16:23;;;;;;;1.20;0.10;;;15.40;52.20;;;;;;5108386;28;20043;-63
2022/11/22 02:18:50;;;;;;;0.47;0.10;;;15.30;52.10;;;;;;5108628;28;20046;-63
2022/11/22 02:21:17;;;;;;;2.63;0.10;;;15.30;52.10;;;;;;5108227;28;20040;-63
2022/11/22 02:24:00;;;;;;;1.33;0.10;;;15.30;52.10;;;;;;5108179;28;20044;-63
2022/11/22 02:26:29;;;;;;;1.33;0.60;;;15.40;52.10;;;;;;5108223;28;20039;-63
2022/11/22 02:29:07;;;;;;;1.67;0.10;;;15.30;52.10;;;;;;5108514;28;20062;-63
2022/11/22 02:31:37;;;;;;;3.80;0.40;;;15.30;52.00;;;;;;5108364;28;20049;-61
2022/11/22 02:34:04;;;;;;;0.98;0.20;;;15.30;52.10;;;;;;5108302;28;20048;-64
2022/11/22 02:36:37;;;;;;;0.20;0.00;;;15.30;52.00;;;;;;5112594;28;20476;-65
2022/11/22 02:39:06;;;;;;;2.47;0.30;;;15.30;52.00;;;;;;5087691;28;20076;-64
2022/11/22 02:41:35;;;;;;;1.45;0.10;;;15.30;52.00;;;;;;5087775;28;20037;-64
2022/11/22 02:44:02;;;;;;;1.88;0.17;;;15.30;52.00;;;;;;5087657;28;20077;-63
2022/11/22 02:46:29;;;;;;;1.40;0.50;;;15.30;52.00;;;;;;5105110;28;20043;-63
2022/11/22 02:48:56;;;;;;;4.03;0.40;;;15.30;52.00;;;;;;5108252;28;20036;-63
2022/11/22 02:51:25;;;;;;;2.55;0.10;;;15.30;51.90;;;;;;5108311;28;20040;-63
2022/11/22 02:53:52;;;;;;;2.38;0.10;;;15.30;52.00;;;;;;5107795;28;20079;-63
2022/11/22 02:56:19;;;;;;;1.33;0.10;;;15.30;51.90;;;;;;5108108;28;20044;-63
2022/11/22 02:58:48;;;;;;;2.83;0.10;;;15.30;51.90;;;;;;5108054;28;20085;-64
2022/11/22 03:01:15;;;;;;;2.38;0.10;;;15.30;51.90;;;;;;5107680;28;20131;-64
2022/11/22 03:03:42;;;;;;;1.00;0.10;;;15.30;51.90;;;;;;5108173;28;20560;-63
2022/11/22 03:06:09;;;;;;;2.30;0.10;;;15.30;52.00;;;;;;5108273;28;20039;-64
2022/11/22 03:08:36;;;;;;;2.13;0.03;;;15.30;52.00;;;;;;5107724;28;20527;-64
2022/11/22 03:11:03;;;;;;;1.65;0.20;;;15.30;52.00;;;;;;5107775;28;20042;-64
2022/11/22 03:13:30;;;;;;;3.10;0.10;;;15.30;52.00;;;;;;5107803;28;20048;-64
2022/11/22 03:15:58;;;;;;;0.20;0.00;;;15.30;51.90;;;;;;5110327;28;20040;-65
2022/11/22 03:18:25;;;;;;;0.55;0.00;;;15.30;51.90;;;;;;5111884;28;20097;-63
2022/11/22 03:20:52;;;;;;;4.05;0.10;;;15.30;52.00;;;;;;5111916;28;20039;-63
2022/11/22 03:23:19;;;;;;;0.93;0.10;;;15.30;52.00;;;;;;5111232;28;20093;-63
2022/11/22 03:25:46;;;;;;;4.82;0.17;;;15.30;51.90;;;;;;5105480;28;20046;-63
2022/11/22 03:28:13;;;;;;;3.83;0.00;;;15.30;52.60;;;;;;5091311;28;20048;-63
2022/11/22 03:30:41;;;;;;;1.00;0.20;;;15.30;52.00;;;;;;5091172;28;20512;-63
2022/11/22 03:33:09;;;;;;;2.05;0.10;;;15.30;52.00;;;;;;5091291;28;20050;-63
2022/11/22 03:35:37;;;;;;;0.20;0.03;;;15.30;52.00;;;;;;5091684;28;20842;-62
2022/11/22 03:38:04;;;;;;;0.20;0.00;;;15.30;52.00;;;;;;5091149;28;20052;-63
2022/11/22 03:40:31;;;;;;;3.47;0.10;;;15.30;52.00;;;;;;5104714;27;20058;-64
2022/11/22 03:43:00;;;;;;;2.30;0.03;;;15.30;52.00;;;;;;5131979;27;20073;-62
2022/11/22 03:45:27;;;;;;;1.65;0.10;;;15.30;52.00;;;;;;5122950;27;20040;-64
2022/11/22 03:47:56;;;;;;;1.75;0.00;;;15.30;52.00;;;;;;5082471;28;20048;-63
2022/11/22 03:50:24;;;;;;;0.08;0.03;;;15.40;52.00;;;;;;5090672;28;20492;-62
2022/11/22 03:52:52;;;;;;;0.25;0.00;;;15.40;52.00;;;;;;5105593;28;20055;-63
2022/11/22 03:55:18;;;;;;;1.65;0.10;;;15.40;52.10;;;;;;5111202;28;20040;-63
2022/11/22 03:57:45;;;;;;;0.20;0.00;;;15.40;52.00;;;;;;5111066;28;20052;-63
2022/11/22 04:00:14;;;;;;;0.50;0.10;;;15.40;52.00;;;;;;5111036;28;20036;-64
2022/11/22 04:02:43;;;;;;;1.15;0.45;;;15.40;52.00;;;;;;5110935;28;20054;-63
2022/11/22 04:05:10;;;;;;;1.67;0.15;;;15.40;52.00;;;;;;5110610;28;20043;-62
2022/11/22 04:07:38;;;;;;;2.83;0.20;;;15.40;52.00;;;;;;5092621;28;20511;-62
2022/11/22 04:10:06;;;;;;;0.75;0.00;;;15.40;52.00;;;;;;5110918;28;20510;-63
2022/11/22 04:12:34;;;;;;;2.05;0.10;;;15.40;52.00;;;;;;5110636;28;20047;-64
2022/11/22 04:15:06;;;;;;;0.30;0.30;;;15.40;51.90;;;;;;5107293;28;20040;-62
2022/11/22 04:17:44;;;;;;;0.65;0.10;;;15.40;52.00;;;;;;5110659;28;20047;-63
2022/11/22 04:23:02;;;;;;;1.15;0.10;;;15.40;52.00;;;;;;5092199;28;20516;-62
2022/11/22 04:25:31;;;;;;;2.72;0.00;;;15.40;52.00;;;;;;5110611;28;20071;-62
2022/11/22 04:27:59;;;;;;;0.25;0.00;;;15.40;51.90;;;;;;5110430;28;20100;-63
2022/11/22 04:32:44;;;;;;;1.27;0.10;;;15.40;51.90;;;;;;5122394;27;20039;-63
2022/11/22 04:33:14;;;;;;;1.65;0.52;;;15.50;52.00;;;;;;5130926;27;20043;-62
2022/11/22 04:35:42;;;;;;;2.28;1.42;;;15.40;51.90;;;;;;5130790;27;20041;-62
2022/11/22 04:38:12;;;;;;;0.20;0.00;;;15.50;51.90;;;;;;5131158;27;20115;-62
2022/11/22 04:40:39;;;;;;;0.15;0.05;;;15.40;51.80;;;;;;5130771;27;20031;-61
2022/11/22 04:45:52;;;;;;;2.20;0.38;;;15.50;51.90;;;;;;5118535;27;20041;-63
2022/11/22 04:48:19;;;;;;;0.55;0.05;;;15.50;51.90;;;;;;5110234;28;20044;-63
2022/11/22 04:53:32;;;;;;;0.65;0.00;;;15.50;51.80;;;;;;5109806;28;20047;-63
2022/11/22 04:55:59;;;;;;;0.57;0.10;;;15.50;51.80;;;;;;5110162;28;20036;-63
2022/11/22 04:58:26;;;;;;;2.50;0.00;;;15.50;51.80;;;;;;5091397;28;20462;-63
2022/11/22 05:00:53;;;;;;;2.90;0.20;;;15.50;51.80;;;;;;5109891;28;20043;-63
2022/11/22 05:03:20;;;;;;;1.38;0.10;;;15.50;51.80;;;;;;5108657;27;20032;-63
2022/11/22 05:05:47;;;;;;;3.80;0.28;;;15.50;51.80;;;;;;5102548;28;20380;-63
2022/11/22 05:08:15;;;;;;;1.17;0.17;;;15.50;51.70;;;;;;5109952;28;20623;-63
2022/11/22 05:10:58;;;;;;;1.48;0.40;;;15.60;51.80;;;;;;5109593;28;20031;-63
2022/11/22 05:13:28;;;;;;;1.25;0.00;;;15.60;51.80;;;;;;5109210;28;20054;-63
2022/11/22 05:15:56;;;;;;;0.10;0.00;;;15.50;51.70;;;;;;5109552;28;20097;-63
2022/11/22 05:18:24;;;;;;;0.65;0.00;;;15.60;51.80;;;;;;5109024;28;20403;-63
2022/11/22 05:20:51;;;;;;;0.10;0.00;;;15.60;51.80;;;;;;5091073;28;20071;-64
2022/11/22 05:26:05;;;;;;;3.00;0.10;;;15.60;51.80;;;;;;5109347;28;20047;-63
2022/11/22 05:28:34;;;;;;;1.58;0.10;;;15.60;51.80;;;;;;5108769;28;20035;-63
2022/11/22 05:31:07;;;;;;;2.60;0.10;;;15.60;51.70;;;;;;5109032;28;20125;-62
2022/11/22 05:33:36;;;;;;;1.48;0.00;;;15.60;51.70;;;;;;5107612;28;20055;-63
2022/11/22 05:36:03;;;;;;;0.60;0.00;;;15.60;52.30;;;;;;5107699;28;20067;-64
2022/11/22 05:38:30;;;;;;;2.90;0.05;;;15.60;51.80;;;;;;5107473;28;20126;-64
2022/11/22 05:40:57;;;;;;;0.82;0.00;;;15.60;51.80;;;;;;5107830;28;20459;-64
2022/11/22 05:43:27;;;;;;;1.08;0.00;;;15.70;51.80;;;;;;5107666;28;20134;-63
2022/11/22 05:45:54;;;;;;;0.52;0.10;;;15.70;51.80;;;;;;5107552;28;20122;-63
2022/11/22 05:48:21;;;;;;;2.83;0.10;;;15.70;51.80;;;;;;5107994;28;20058;-63
2022/11/22 05:50:48;;;;;;;0.40;0.00;;;15.70;51.80;;;;;;5109443;28;20051;-63
2022/11/22 05:53:15;;;;;;;1.38;0.00;;;15.70;51.80;;;;;;5100293;28;20044;-62
2022/11/22 05:55:42;;;;;;;0.93;0.22;;;15.70;51.80;;;;;;5070089;28;20086;-63
2022/11/22 05:58:09;;;;;;;1.45;0.03;;;15.70;51.90;;;;;;5088316;28;20171;-63
2022/11/22 06:00:38;;;;;;;2.25;0.50;;;15.70;51.80;;;;;;5088419;28;20055;-62
2022/11/22 06:03:05;;;;;;;0.68;0.00;;;15.70;51.80;;;;;;5087809;28;20052;-63
2022/11/22 06:05:32;;;;;;;0.98;0.05;;;15.70;51.90;;;;;;5088395;28;20047;-63
2022/11/22 06:08:00;;;;;;;0.40;0.00;;;15.70;51.90;;;;;;5088420;28;20043;-63
2022/11/22 06:10:27;;;;;;;1.63;0.10;;;15.70;51.90;;;;;;5089411;28;20036;-63
2022/11/22 06:12:55;;;;;;;0.45;0.00;;;15.70;52.50;;;;;;5108570;28;20050;-63
2022/11/22 06:15:22;;;;;;;0.10;0.10;;;15.70;51.90;;;;;;5108090;28;20054;-62
2022/11/22 06:17:50;;;;;;;0.08;0.00;;;15.70;52.50;;;;;;5108584;28;20044;-63
2022/11/22 06:20:17;;;;;;;1.27;0.00;;;15.80;52.00;;;;;;5108551;28;20050;-62
2022/11/22 06:22:44;;;;;;;0.32;0.10;;;15.70;52.00;;;;;;5108610;28;20035;-63
2022/11/22 06:25:11;;;;;;;0.95;0.00;;;15.70;52.00;;;;;;5108415;28;20122;-63
2022/11/22 06:27:38;;;;;;;0.85;0.08;;;15.70;52.00;;;;;;5090145;28;20035;-63
2022/11/22 06:30:07;;;;;;;0.95;0.08;;;15.70;52.00;;;;;;5107842;28;20093;-64
2022/11/22 06:32:34;;;;;;;2.17;0.25;;;15.70;52.00;;;;;;5108385;28;20040;-65
2022/11/22 06:35:03;;;;;;;0.10;0.00;;;15.70;52.00;;;;;;5109166;28;20051;-66
2022/11/22 06:37:30;;;;;;;0.73;0.00;;;15.70;52.00;;;;;;5106852;28;20085;-66
2022/11/22 06:39:57;;;;;;;2.25;0.20;;;15.70;52.10;;;;;;5128651;28;20094;-64
2022/11/22 06:42:24;;;;;;;2.92;0.10;;;15.80;52.10;;;;;;5121604;28;20045;-64
2022/11/22 06:44:52;;;;;;;0.55;0.10;;;15.80;52.10;;;;;;5106245;28;20075;-63
2022/11/22 06:47:19;;;;;;;0.50;0.10;;;15.80;52.20;;;;;;5108265;28;20726;-63
2022/11/22 06:49:46;;;;;;;1.05;0.20;;;15.80;52.10;;;;;;5108693;28;20092;-63
2022/11/22 06:52:14;;;;;;;1.45;0.20;;;15.80;52.10;;;;;;5112263;28;20059;-63
2022/11/22 06:54:41;;;;;;;0.52;0.28;;;15.80;52.20;;;;;;5112316;28;20052;-62
2022/11/22 06:57:08;;;;;;;0.75;0.28;;;15.80;52.10;;;;;;5112223;28;20035;-64
2022/11/22 06:59:36;;;;;;;0.50;0.13;;;15.80;52.20;;;;;;5111753;28;20100;-64
2022/11/22 07:02:03;;;;;;;3.30;0.20;;;15.80;52.20;;;;;;5111963;28;20044;-64
2022/11/22 07:04:30;;;;;;;0.75;0.15;;;15.80;52.20;;;;;;5112175;28;20586;-63
2022/11/22 07:06:57;;;;;;;0.68;0.20;;;15.80;52.20;;;;;;5112070;28;20508;-62
2022/11/22 07:09:25;;;;;;;2.75;0.30;;;15.80;52.20;;;;;;5112025;28;20047;-63
2022/11/22 07:11:52;;;;;;;1.48;0.25;;;15.80;52.20;;;;;;5111503;28;20035;-63
2022/11/22 07:14:19;;;;;;;4.35;0.73;;;15.80;52.20;;;;;;5111625;28;20453;-63
2022/11/22 07:16:46;;;;;;;1.75;0.70;;;15.80;52.80;;;;;;5112363;28;20120;-63
2022/11/22 07:19:13;;;;;;;5.95;0.47;;;15.80;52.20;;;;;;5111758;28;20051;-65
2022/11/22 07:21:40;;;;;;;2.47;0.77;;;15.80;52.20;;;;;;5111784;28;20044;-65
2022/11/22 07:24:08;;;;;;;1.30;0.60;;;15.80;52.20;;;;;;5111875;28;20044;-65
2022/11/22 07:26:36;;;;;;;1.33;0.50;;;15.80;52.20;;;;;;5111777;28;20054;-62
2022/11/22 07:29:04;;;;;;;1.83;0.32;;;15.90;52.90;;;;;;5111325;28;20117;-62
2022/11/22 07:31:31;;;;;;;1.27;0.60;;;15.90;52.30;;;;;;5098884;28;20040;-63
2022/11/22 07:33:58;;;;;;;1.15;0.50;;;15.90;52.30;;;;;;5091218;28;20504;-63
2022/11/22 07:36:27;;;;;;;3.13;0.93;;;15.90;52.30;;;;;;5091211;28;20531;-63
2022/11/22 07:38:55;;;;;;;2.05;0.55;;;15.90;52.30;;;;;;5091339;28;20080;-63
2022/11/22 07:41:22;;;;;;;4.82;0.63;;;15.90;52.30;;;;;;5091390;28;20048;-63
2022/11/22 07:43:51;;;;;;;3.97;0.38;;;15.90;52.30;;;;;;5090048;28;20052;-63
2022/11/22 07:46:24;;;;;;;3.30;0.47;;;15.90;52.80;;;;;;5105582;28;20519;-63
2022/11/22 07:48:51;;;;;;;3.00;0.85;;;15.90;52.30;;;;;;5110260;28;20412;-63
2022/11/22 07:51:19;;;;;;;2.65;0.63;;;15.90;52.20;;;;;;5110111;28;20131;-64
2022/11/22 07:53:46;;;;;;;3.03;0.50;;;15.90;52.20;;;;;;5109878;28;20122;-63
2022/11/22 07:56:14;;;;;;;2.63;0.32;;;15.90;52.30;;;;;;5110140;28;20392;-64
2022/11/22 07:58:41;;;;;;;2.20;0.30;;;15.90;52.30;;;;;;5109739;28;20532;-65
2022/11/22 08:01:11;;;;;;;1.45;0.20;;;15.90;52.30;;;;;;5109365;28;20044;-64
2022/11/22 08:03:39;;;;;;;0.90;0.20;;;16.00;52.30;;;;;;5109756;28;20559;-63
2022/11/22 08:06:08;;;;;;;1.90;0.38;;;16.00;52.40;;;;;;5110342;28;20439;-62
2022/11/22 08:08:35;;;;;;;1.23;0.30;;;15.90;52.30;;;;;;5110072;28;20036;-63
2022/11/22 08:11:03;;;;;;;0.88;0.20;;;16.00;52.40;;;;;;5109734;28;20065;-64
2022/11/22 08:13:31;;;;;;;1.13;0.30;;;16.00;52.40;;;;;;5109409;28;20944;-63
2022/11/22 08:16:02;;;;;;;1.35;0.30;;;15.90;52.30;;;;;;5109383;28;20032;-64
2022/11/22 08:18:30;;;;;;;0.75;0.20;;;16.00;52.40;;;;;;5106562;28;20123;-64
2022/11/22 08:21:08;;;;;;;1.63;0.52;;;15.90;52.40;;;;;;5089475;28;20040;-63
2022/11/22 08:23:36;;;;;;;0.50;0.10;;;16.00;52.40;;;;;;5089257;28;20549;-62
2022/11/22 08:26:03;;;;;;;1.90;0.20;;;16.00;53.10;;;;;;5089006;28;20051;-64
2022/11/22 08:28:30;;;;;;;0.50;0.10;;;16.00;52.50;;;;;;5089275;28;20126;-63
2022/11/22 08:31:03;;;;;;;1.98;0.20;;;16.00;52.60;;;;;;5089045;28;20137;-65
2022/11/22 08:33:31;;;;;;;1.38;0.20;;;16.00;52.50;;;;;;5089121;28;20105;-64
2022/11/22 08:35:58;;;;;;;0.47;0.20;;;16.00;52.50;;;;;;5089189;28;20486;-63
2022/11/22 08:38:25;;;;;;;1.38;0.30;;;16.00;52.50;;;;;;5070918;28;20126;-63
2022/11/22 08:40:52;;;;;;;0.77;0.10;;;16.00;52.50;;;;;;5115586;28;20046;-63
2022/11/22 08:43:20;;;;;;;1.77;0.50;;;16.00;52.60;;;;;;5086696;27;1220209;-63
2022/11/22 08:45:47;;;;;;;1.48;0.30;;;16.00;52.60;;;;;;5119414;27;20040;-64
2022/11/22 08:48:14;;;;;;;1.00;0.20;;;16.10;52.60;;;;;;5110610;28;20120;-63
2022/11/22 08:50:50;;;;;;;2.05;0.20;;;16.00;52.60;;;;;;5110581;28;20043;-63
2022/11/22 08:53:17;;;;;;;1.23;0.20;;;16.10;52.70;;;;;;5110332;28;20040;-63
2022/11/22 08:55:44;;;;;;;0.90;0.10;;;16.00;52.60;;;;;;5109822;28;20031;-63
2022/11/22 08:58:11;;;;;;;2.75;0.20;;;16.10;52.70;;;;;;5110304;28;20516;-64
2022/11/22 09:00:38;;;;;;;1.25;0.43;;;16.10;52.70;;;;;;5109989;28;20119;-63
2022/11/22 09:03:05;;;;;;;1.38;0.10;;;16.10;52.70;;;;;;5109684;28;20050;-63
2022/11/22 09:05:32;;;;;;;1.60;0.57;;;16.10;52.60;;;;;;5109957;28;20039;-65
2022/11/22 09:08:00;;;;;;;1.95;0.10;;;16.10;52.70;;;;;;5109814;28;20043;-63
2022/11/22 09:10:28;;;;;;;0.88;0.10;;;16.10;52.70;;;;;;5109505;28;20039;-63
2022/11/22 09:12:55;;;;;;;2.30;0.20;;;16.20;52.70;;;;;;5109166;28;20047;-64
2022/11/22 09:15:22;;;;;;;1.48;0.30;;;16.20;52.70;;;;;;5109700;28;20117;-65
2022/11/22 09:17:49;;;;;;;3.88;0.57;;;16.20;53.20;;;;;;5109335;28;20062;-63
2022/11/22 09:20:17;;;;;;;5.10;0.57;;;16.20;52.60;;;;;;5109824;28;20036;-63
2022/11/22 09:22:44;;;;;;;1.15;0.35;;;16.20;52.60;;;;;;5109947;28;20122;-64
2022/11/22 09:25:12;;;;;;;1.75;0.10;;;16.30;52.70;;;;;;5109383;28;20039;-65
2022/11/22 09:27:39;;;;;;;1.55;0.10;;;16.30;52.60;;;;;;5109704;28;20083;-65
2022/11/22 09:30:07;;;;;;;1.35;0.10;;;16.30;52.50;;;;;;5109579;28;20045;-64
2022/11/22 09:32:34;;;;;;;1.80;0.17;;;16.30;52.60;;;;;;5109498;28;20067;-65
2022/11/22 09:35:01;;;;;;;2.45;0.10;;;16.30;52.60;;;;;;5109426;28;20051;-63
2022/11/22 09:37:28;;;;;;;0.90;0.10;;;16.40;52.50;;;;;;5109609;28;20067;-64
2022/11/22 09:39:55;;;;;;;2.47;1.20;;;16.40;52.80;;;;;;5109183;28;20055;-64
2022/11/22 09:42:51;;;;;;;3.05;0.50;;;16.40;52.40;;;;;;5114140;27;20047;-64
2022/11/22 09:45:35;;;;;;;2.38;0.60;;;16.50;52.40;;;;;;5122338;27;20035;-64
2022/11/22 09:48:09;;;;;;;2.63;0.35;;;16.50;52.50;;;;;;5109481;28;20126;-64
2022/11/22 09:50:47;;;;;;;1.63;0.17;;;16.50;52.50;;;;;;5109619;28;20142;-65
2022/11/22 09:53:19;;;;;;;1.45;0.40;;;16.60;52.50;;;;;;5109253;28;20088;-64
2022/11/22 09:55:49;;;;;;;2.47;0.52;;;16.60;52.40;;;;;;5109152;28;20044;-64
2022/11/22 09:58:27;;;;;;;1.67;0.20;;;16.70;52.40;;;;;;5108928;28;20040;-63
2022/11/22 10:00:58;;;;;;;2.05;0.57;;;16.70;52.20;;;;;;5109032;28;20525;-64
2022/11/22 10:03:40;;;;;;;2.70;0.10;;;16.80;52.20;;;;;;5109095;28;20444;-65
2022/11/22 10:06:13;;;;;;;1.73;0.10;;;16.80;52.10;;;;;;5109064;28;20119;-64
2022/11/22 10:08:43;;;;;;;2.13;0.20;;;16.90;52.10;;;;;;5108563;28;20043;-64
2022/11/22 10:11:17;;;;;;;1.30;0.10;;;17.00;52.00;;;;;;5108696;28;20044;-65
2022/11/22 10:13:51;;;;;;;3.67;1.10;;;17.00;51.80;;;;;;5108917;28;20656;-63
2022/11/22 10:16:24;;;;;;;3.35;0.60;;;17.10;51.70;;;;;;5108450;28;20060;-63
2022/11/22 10:18:56;;;;;;;2.05;0.10;;;17.20;51.60;;;;;;5108785;28;20039;-64
2022/11/22 10:21:23;;;;;;;0.82;0.17;;;17.30;51.50;;;;;;5108460;28;20070;-64
2022/11/22 10:23:50;;;;;;;3.47;0.20;;;17.30;51.40;;;;;;5108178;28;20036;-63
2022/11/22 10:26:24;;;;;;;0.70;0.30;;;17.50;51.30;;;;;;5108550;28;20079;-62
2022/11/22 10:29:11;;;;;;;1.02;0.10;;;17.50;51.20;;;;;;5108731;28;20942;-63
2022/11/22 10:31:41;;;;;;;;;;;17.70;51.10;;;;;;5116869;27;20039;-63
2022/11/22 10:34:17;;;;;;;2.17;0.10;;;17.60;50.90;;;;;;5129106;27;20314;-63
2022/11/22 10:36:46;;;;;;;;;;;17.70;50.90;;;;;;5129030;28;20074;-64
2022/11/22 10:39:21;;;;;;;2.03;0.13;;;17.70;50.80;;;;;;5129088;28;19927;-64
2022/11/22 10:42:07;;;;;;;1.35;0.20;;;17.80;50.70;;;;;;5129277;28;20071;-63
2022/11/22 10:44:41;;;;;;;;;;;17.90;50.50;;;;;;5119302;28;20146;-64
2022/11/22 10:47:16;;;;;;;2.28;0.10;;;18.00;50.50;;;;;;5108411;28;19991;-64
2022/11/22 10:49:57;;;;;;;1.85;0.20;;;18.10;50.30;;;;;;5108463;28;20131;-63
2022/11/22 10:52:35;;;;;;;2.88;0.10;;;18.20;50.60;;;;;;5107985;28;20124;-63
2022/11/22 10:55:17;;;;;;;1.98;0.10;;;18.30;49.90;;;;;;5108178;28;20050;-63
2022/11/22 10:57:53;;;;;;;1.27;0.10;;;18.40;49.60;;;;;;5108358;28;20051;-63
2022/11/22 11:00:24;;;;;;;8.93;0.65;;;18.50;49.40;;;;;;5108269;28;20036;-63
2022/11/22 11:03:05;;;;;;;1.20;0.32;;;18.60;49.20;;;;;;5108219;28;20130;-64
2022/11/22 11:05:39;;;;;;;0.57;0.15;;;18.70;49.00;;;;;;5108063;28;20393;-64
2022/11/22 11:08:11;;;;;;;2.13;0.10;;;18.80;48.90;;;;;;5108303;28;20462;-63
2022/11/22 11:10:40;;;;;;;1.63;0.52;;;18.80;48.70;;;;;;5108108;28;20036;-66
2022/11/22 11:13:17;;;;;;;1.58;0.20;;;18.90;48.60;;;;;;5108105;28;20586;-65
2022/11/22 11:15:50;;;;;;;4.57;0.45;;;19.00;48.40;;;;;;5108048;28;20142;-65
2022/11/22 11:18:22;;;;;;;1.90;0.10;;;19.10;48.30;;;;;;5089967;28;20130;-64
2022/11/22 11:20:51;;;;;;;1.30;0.10;;;19.10;48.20;;;;;;5107965;28;20043;-65
2022/11/22 11:23:18;;;;;;;3.03;0.10;;;19.20;48.00;;;;;;5107653;28;20415;-64
2022/11/22 11:25:46;;;;;;;0.93;0.10;;;19.20;47.80;;;;;;5108140;28;20127;-65
2022/11/22 11:28:19;;;;;;;0.50;0.20;;;19.30;47.70;;;;;;5107892;28;20047;-65
2022/11/22 11:30:50;;;;;;;0.35;0.10;;;19.40;47.60;;;;;;5108172;28;20123;-65
2022/11/22 11:33:26;;;;;;;2.28;0.20;;;19.40;47.50;;;;;;5096856;28;20619;-64
2022/11/22 11:35:57;;;;;;;1.35;0.10;;;19.50;47.40;;;;;;5088039;28;20557;-65
2022/11/22 11:38:33;;;;;;;1.92;0.47;;;19.50;47.30;;;;;;5091232;28;20141;-65
2022/11/22 11:41:14;;;;;;;;;;;19.60;47.20;;;;;;5091853;28;20040;-66
2022/11/22 11:43:43;;;;;;;3.35;0.00;;;19.50;47.30;;;;;;5091235;28;19975;-66
2022/11/22 11:46:16;;;;;;;1.85;0.80;;;19.50;47.20;;;;;;5105897;28;20512;-65
2022/11/22 11:48:44;;;;;;;7.18;0.22;;;19.60;47.10;;;;;;5111672;28;20047;-65
2022/11/22 11:51:20;;;;;;;1.92;0.20;;;19.70;47.00;;;;;;5111307;28;20070;-65
2022/11/22 11:54:01;;;;;;;1.50;0.20;;;19.80;46.90;;;;;;5111719;28;20090;-65
2022/11/22 11:56:36;;;;;;;3.20;0.20;;;19.80;46.80;;;;;;5111406;28;20052;-65
2022/11/22 11:59:11;;;;;;;1.83;0.20;;;19.80;46.70;;;;;;5111317;28;20058;-65
2022/11/22 12:01:46;;;;;;;0.50;0.17;;;19.90;46.60;;;;;;5111180;28;20573;-67
2022/11/22 12:04:19;;;;;;;3.43;0.10;;;19.90;46.50;;;;;;5092887;28;20081;-65
2022/11/22 12:06:54;;;;;;;0.40;0.10;;;20.00;46.40;;;;;;5111568;28;20674;-65
2022/11/22 12:09:31;;;;;;;2.50;0.20;;;20.10;46.30;;;;;;5111302;28;20044;-64
2022/11/22 12:12:05;;;;;;;0.35;0.28;;;20.10;46.30;;;;;;5111043;28;20047;-66
2022/11/22 12:14:33;;;;;;;2.58;0.10;;;20.10;46.20;;;;;;5110978;28;20051;-66
2022/11/22 12:17:07;;;;;;;0.47;0.10;;;20.20;46.20;;;;;;5111117;28;20415;-67
2022/11/22 12:19:45;;;;;;;1.13;0.40;;;20.20;46.20;;;;;;5107097;28;20097;-64
2022/11/22 12:22:18;;;;;;;2.92;0.55;;;20.30;46.10;;;;;;5099575;27;20504;-64
2022/11/22 12:24:52;;;;;;;4.07;0.10;;;20.30;46.40;;;;;;5110857;28;20648;-64
2022/11/22 12:27:19;;;;;;;6.43;0.43;;;20.30;46.80;;;;;;5111892;27;20094;-68
2022/11/22 12:29:46;;;;;;;5.65;0.68;;;20.40;47.30;;;;;;5129316;27;20556;-66
2022/11/22 12:32:19;;;;;;;3.85;0.20;;;20.40;47.20;;;;;;5131045;27;20456;-66
2022/11/22 12:34:54;;;;;;;4.00;0.85;;;20.50;47.20;;;;;;5112385;27;20050;-66
2022/11/22 12:37:26;;;;;;;6.72;0.57;;;20.50;47.10;;;;;;5131309;27;20435;-66
2022/11/22 12:39:56;;;;;;;5.55;0.25;;;20.50;47.00;;;;;;5112554;27;20042;-65
2022/11/22 12:42:31;;;;;;;2.03;0.17;;;20.50;46.90;;;;;;5130972;27;20163;-66
2022/11/22 12:45:02;;;;;;;4.53;0.17;;;20.60;46.70;;;;;;5083549;28;20074;-63
2022/11/22 12:47:37;;;;;;;2.25;0.10;;;20.60;46.70;;;;;;5098474;28;20077;-71
2022/11/22 12:50:09;;;;;;;7.93;0.55;;;20.60;47.20;;;;;;5109941;28;20047;-66
2022/11/22 12:52:41;;;;;;;5.35;1.10;;;20.60;46.60;;;;;;5103611;28;20114;-66
2022/11/22 12:55:17;;;;;;;4.07;0.52;;;20.60;46.60;;;;;;5110161;28;20074;-71
2022/11/22 12:57:50;;;;;;;2.97;0.10;;;20.60;46.60;;;;;;5112734;28;20036;-72
2022/11/22 13:00:20;;;;;;;3.75;0.30;;;20.60;46.70;;;;;;5109006;28;20070;-70
2022/11/22 13:02:59;;;;;;;4.78;0.17;;;20.60;46.70;;;;;;5106915;28;20507;-71
2022/11/22 13:05:29;;;;;;;4.30;1.00;;;20.70;46.70;;;;;;5108807;28;20122;-70
2022/11/22 13:08:05;;;;;;;1.63;0.10;;;20.70;46.80;;;;;;5098864;28;20048;-70
2022/11/22 13:10:36;;;;;;;;;;;20.70;46.80;;;;;;5091874;28;20070;-69